sensor_id;sensor_type;location;lat;lon;timestamp;pressure;altitude;pressure_sealevel;temperature;humidity
75221;BME280;63802;53.232;6.570;2023-02-11T00:01:31;103218.66;;;5.68;88.75
75221;BME280;63802;53.232;6.570;2023-02-11T00:03:58;103208.34;;;5.65;88.49
75221;BME280;63802;53.232;6.570;2023-02-11T00:06:27;103195.91;;;5.64;88.65
75221;BME280;63802;53.232;6.570;2023-02-11T00:08:53;103194.81;;;5.65;88.27
75221;BME280;63802;53.232;6.570;2023-02-11T00:11:20;103183.72;;;5.66;88.28
75221;BME280;63802;53.232;6.570;2023-02-11T00:13:47;103182.34;;;5.69;88.31
75221;BME280;63802;53.232;6.570;2023-02-11T00:16:15;103188.31;;;5.66;88.49
75221;BME280;63802;53.232;6.570;2023-02-11T00:18:41;103189.94;;;5.72;88.59
75221;BME280;63802;53.232;6.570;2023-02-11T00:21:08;103190.22;;;5.70;88.70
75221;BME280;63802;53.232;6.570;2023-02-11T00:23:34;103186.41;;;5.71;88.48
75221;BME280;63802;53.232;6.570;2023-02-11T00:26:00;103193.47;;;5.67;88.76
75221;BME280;63802;53.232;6.570;2023-02-11T00:28:26;103205.66;;;5.70;88.55
75221;BME280;63802;53.232;6.570;2023-02-11T00:30:57;103204.28;;;5.72;88.74
75221;BME280;63802;53.232;6.570;2023-02-11T00:33:23;103198.59;;;5.74;88.67
75221;BME280;63802;53.232;6.570;2023-02-11T00:35:49;103198.59;;;5.79;88.97
75221;BME280;63802;53.232;6.570;2023-02-11T00:38:17;103194.28;;;5.83;88.78
75221;BME280;63802;53.232;6.570;2023-02-11T00:40:43;103178.56;;;5.80;88.69
75221;BME280;63802;53.232;6.570;2023-02-11T00:43:08;103179.09;;;5.82;88.71
75221;BME280;63802;53.232;6.570;2023-02-11T00:45:33;103162.31;;;5.80;88.83
75221;BME280;63802;53.232;6.570;2023-02-11T00:47:59;103172.59;;;5.83;88.96
75221;BME280;63802;53.232;6.570;2023-02-11T00:50:24;103182.88;;;5.81;88.98
75221;BME280;63802;53.232;6.570;2023-02-11T00:52:50;103185.59;;;5.81;88.92
75221;BME280;63802;53.232;6.570;2023-02-11T00:55:15;103178.03;;;5.83;88.84
75221;BME280;63802;53.232;6.570;2023-02-11T00:57:41;103188.31;;;5.86;89.18
75221;BME280;63802;53.232;6.570;2023-02-11T01:00:07;103182.13;;;5.85;89.36
75221;BME280;63802;53.232;6.570;2023-02-11T01:02:34;103200.50;;;5.83;89.40
75221;BME280;63802;53.232;6.570;2023-02-11T01:04:59;103197.00;;;5.83;89.55
75221;BME280;63802;53.232;6.570;2023-02-11T01:07:26;103211.09;;;5.90;89.53
75221;BME280;63802;53.232;6.570;2023-02-11T01:09:52;103220.31;;;5.89;89.56
75221;BME280;63802;53.232;6.570;2023-02-11T01:12:18;103210.53;;;5.88;89.34
75221;BME280;63802;53.232;6.570;2023-02-11T01:14:44;103206.22;;;5.87;89.52
75221;BME280;63802;53.232;6.570;2023-02-11T01:17:09;103193.72;;;5.81;89.54
75221;BME280;63802;53.232;6.570;2023-02-11T01:19:38;103207.28;;;5.86;89.50
75221;BME280;63802;53.232;6.570;2023-02-11T01:22:04;103192.13;;;5.85;89.81
75221;BME280;63802;53.232;6.570;2023-02-11T01:24:29;103191.03;;;5.86;89.33
75221;BME280;63802;53.232;6.570;2023-02-11T01:26:55;103180.47;;;5.84;89.57
75221;BME280;63802;53.232;6.570;2023-02-11T01:29:21;103188.06;;;5.87;90.11
75221;BME280;63802;53.232;6.570;2023-02-11T01:31:47;103178.03;;;5.78;89.87
75221;BME280;63802;53.232;6.570;2023-02-11T01:34:13;103184.84;;;5.85;90.10
75221;BME280;63802;53.232;6.570;2023-02-11T01:36:39;103174.75;;;5.81;90.07
75221;BME280;63802;53.232;6.570;2023-02-11T01:39:04;103179.09;;;5.77;90.12
75221;BME280;63802;53.232;6.570;2023-02-11T01:41:30;103183.97;;;5.80;90.40
75221;BME280;63802;53.232;6.570;2023-02-11T01:43:55;103178.81;;;5.83;90.32
75221;BME280;63802;53.232;6.570;2023-02-11T01:46:29;103188.88;;;5.83;90.41
75221;BME280;63802;53.232;6.570;2023-02-11T01:49:11;103184.81;;;5.80;90.06
75221;BME280;63802;53.232;6.570;2023-02-11T01:51:40;103179.91;;;5.77;90.34
75221;BME280;63802;53.232;6.570;2023-02-11T01:54:08;103178.03;;;5.78;90.57
75221;BME280;63802;53.232;6.570;2023-02-11T01:56:54;103162.03;;;5.76;90.62
75221;BME280;63802;53.232;6.570;2023-02-11T02:05:09;103173.44;;;5.73;90.65
75221;BME280;63802;53.232;6.570;2023-02-11T02:07:45;103170.97;;;5.72;90.91
75221;BME280;63802;53.232;6.570;2023-02-11T02:10:18;103173.69;;;5.72;90.79
75221;BME280;63802;53.232;6.570;2023-02-11T02:12:45;103175.31;;;5.68;90.94
75221;BME280;63802;53.232;6.570;2023-02-11T02:15:32;103167.72;;;5.70;90.88
75221;BME280;63802;53.232;6.570;2023-02-11T02:23:50;103153.66;;;5.68;90.86
75221;BME280;63802;53.232;6.570;2023-02-11T02:35:09;103140.63;;;5.70;91.20
75221;BME280;63802;53.232;6.570;2023-02-11T02:37:43;103135.75;;;5.67;91.39
75221;BME280;63802;53.232;6.570;2023-02-11T02:40:16;103141.72;;;5.69;91.20
75221;BME280;63802;53.232;6.570;2023-02-11T02:42:43;103128.19;;;5.59;91.03
75221;BME280;63802;53.232;6.570;2023-02-11T02:45:10;103124.91;;;5.67;91.73
75221;BME280;63802;53.232;6.570;2023-02-11T02:47:37;103112.47;;;5.66;91.45
75221;BME280;63802;53.232;6.570;2023-02-11T02:50:04;103112.47;;;5.66;91.88
75221;BME280;63802;53.232;6.570;2023-02-11T02:56:13;103112.19;;;5.67;91.89
75221;BME280;63802;53.232;6.570;2023-02-11T02:59:08;103116.78;;;5.72;91.93
75221;BME280;63802;53.232;6.570;2023-02-11T03:02:15;103121.13;;;5.73;92.01
75221;BME280;63802;53.232;6.570;2023-02-11T03:12:29;103114.59;;;5.84;92.22
75221;BME280;63802;53.232;6.570;2023-02-11T03:14:57;103099.19;;;5.74;92.30
75221;BME280;63802;53.232;6.570;2023-02-11T03:17:25;103102.69;;;5.80;91.93
75221;BME280;63802;53.232;6.570;2023-02-11T03:19:53;103110.84;;;5.85;92.51
75221;BME280;63802;53.232;6.570;2023-02-11T03:22:24;103111.69;;;5.85;92.00
75221;BME280;63802;53.232;6.570;2023-02-11T03:24:51;103122.22;;;5.87;92.33
75221;BME280;63802;53.232;6.570;2023-02-11T03:27:26;103122.75;;;5.89;92.47
75221;BME280;63802;53.232;6.570;2023-02-11T03:29:59;103112.47;;;5.86;92.32
75221;BME280;63802;53.232;6.570;2023-02-11T03:32:36;103106.50;;;5.89;92.52
75221;BME280;63802;53.232;6.570;2023-02-11T03:35:11;103101.06;;;5.89;92.75
75221;BME280;63802;53.232;6.570;2023-02-11T03:37:54;103108.16;;;5.85;92.48
75221;BME280;63802;53.232;6.570;2023-02-11T03:40:24;103101.63;;;5.91;92.44
75221;BME280;63802;53.232;6.570;2023-02-11T03:42:57;103101.06;;;5.89;92.61
75221;BME280;63802;53.232;6.570;2023-02-11T03:45:25;103110.28;;;5.93;92.83
75221;BME280;63802;53.232;6.570;2023-02-11T03:47:59;103106.19;;;5.95;92.87
75221;BME280;63802;53.232;6.570;2023-02-11T03:50:25;103100.00;;;5.95;92.85
75221;BME280;63802;53.232;6.570;2023-02-11T03:52:52;103106.47;;;5.99;93.13
75221;BME280;63802;53.232;6.570;2023-02-11T03:55:19;103101.06;;;5.99;93.03
75221;BME280;63802;53.232;6.570;2023-02-11T03:57:47;103090.75;;;6.01;93.11
75221;BME280;63802;53.232;6.570;2023-02-11T04:00:13;103099.94;;;6.05;93.25
75221;BME280;63802;53.232;6.570;2023-02-11T04:02:41;103085.34;;;5.96;92.99
75221;BME280;63802;53.232;6.570;2023-02-11T04:05:08;103091.81;;;6.00;92.91
75221;BME280;63802;53.232;6.570;2023-02-11T04:07:34;103112.94;;;6.08;93.12
75221;BME280;63802;53.232;6.570;2023-02-11T04:09:59;103112.94;;;6.13;93.42
75221;BME280;63802;53.232;6.570;2023-02-11T04:12:25;103112.41;;;6.16;93.38
75221;BME280;63802;53.232;6.570;2023-02-11T04:14:50;103114.81;;;6.18;93.35
75221;BME280;63802;53.232;6.570;2023-02-11T04:17:16;103106.41;;;6.19;93.26
75221;BME280;63802;53.232;6.570;2023-02-11T04:19:42;103114.50;;;6.24;93.47
75221;BME280;63802;53.232;6.570;2023-02-11T04:22:08;103102.06;;;6.23;93.42
75221;BME280;63802;53.232;6.570;2023-02-11T04:24:34;103109.38;;;6.28;93.12
75221;BME280;63802;53.232;6.570;2023-02-11T04:26:59;103096.09;;;6.26;93.04
75221;BME280;63802;53.232;6.570;2023-02-11T04:29:25;103097.16;;;6.30;93.10
75221;BME280;63802;53.232;6.570;2023-02-11T04:31:50;103107.97;;;6.35;93.14
75221;BME280;63802;53.232;6.570;2023-02-11T04:34:16;103090.38;;;6.28;93.60
75221;BME280;63802;53.232;6.570;2023-02-11T04:36:44;103101.75;;;6.30;93.22
75221;BME280;63802;53.232;6.570;2023-02-11T04:39:09;103114.75;;;6.38;93.36
75221;BME280;63802;53.232;6.570;2023-02-11T04:41:35;103115.00;;;6.41;93.27
75221;BME280;63802;53.232;6.570;2023-02-11T04:44:00;103111.19;;;6.42;93.23
75221;BME280;63802;53.232;6.570;2023-02-11T04:46:25;103115.28;;;6.40;93.77
75221;BME280;63802;53.232;6.570;2023-02-11T04:48:51;103123.66;;;6.43;93.34
75221;BME280;63802;53.232;6.570;2023-02-11T04:51:16;103103.59;;;6.44;93.34
75221;BME280;63802;53.232;6.570;2023-02-11T04:53:42;103110.38;;;6.42;93.64
75221;BME280;63802;53.232;6.570;2023-02-11T04:56:07;103106.31;;;6.39;93.84
75221;BME280;63802;53.232;6.570;2023-02-11T04:58:32;103108.50;;;6.42;93.40
75221;BME280;63802;53.232;6.570;2023-02-11T05:01:09;103094.44;;;6.35;93.49
75221;BME280;63802;53.232;6.570;2023-02-11T05:03:35;103109.56;;;6.41;93.74
75221;BME280;63802;53.232;6.570;2023-02-11T05:06:01;103107.69;;;6.42;93.55
75221;BME280;63802;53.232;6.570;2023-02-11T05:08:26;103112.81;;;6.43;93.62
75221;BME280;63802;53.232;6.570;2023-02-11T05:10:52;103115.00;;;6.41;93.65
75221;BME280;63802;53.232;6.570;2023-02-11T05:13:17;103120.19;;;6.38;93.15
75221;BME280;63802;53.232;6.570;2023-02-11T05:15:43;103100.91;;;6.34;93.62
75221;BME280;63802;53.232;6.570;2023-02-11T05:18:08;103105.81;;;6.32;93.53
75221;BME280;63802;53.232;6.570;2023-02-11T05:20:37;103118.00;;;6.40;93.61
75221;BME280;63802;53.232;6.570;2023-02-11T05:23:02;103119.34;;;6.42;93.60
75221;BME280;63802;53.232;6.570;2023-02-11T05:25:31;103109.84;;;6.45;93.30
75221;BME280;63802;53.232;6.570;2023-02-11T05:27:56;103103.63;;;6.39;93.85
75221;BME280;63802;53.232;6.570;2023-02-11T05:30:22;103099.81;;;6.45;93.45
75221;BME280;63802;53.232;6.570;2023-02-11T05:32:47;103087.38;;;6.29;93.75
75221;BME280;63802;53.232;6.570;2023-02-11T05:35:12;103097.66;;;6.37;93.66
75221;BME280;63802;53.232;6.570;2023-02-11T05:37:38;103099.56;;;6.37;93.68
75221;BME280;63802;53.232;6.570;2023-02-11T05:40:04;103108.00;;;6.30;93.59
75221;BME280;63802;53.232;6.570;2023-02-11T05:42:29;103115.59;;;6.33;93.68
75221;BME280;63802;53.232;6.570;2023-02-11T05:44:55;103116.13;;;6.35;93.67
75221;BME280;63802;53.232;6.570;2023-02-11T05:47:20;103128.56;;;6.36;93.44
75221;BME280;63802;53.232;6.570;2023-02-11T05:49:46;103120.19;;;6.38;93.41
75221;BME280;63802;53.232;6.570;2023-02-11T05:52:11;103110.69;;;6.35;93.39
75221;BME280;63802;53.232;6.570;2023-02-11T05:54:37;103108.19;;;6.44;93.59
75221;BME280;63802;53.232;6.570;2023-02-11T05:57:02;103124.47;;;6.44;93.64
75221;BME280;63802;53.232;6.570;2023-02-11T05:59:28;103113.41;;;6.35;93.38
75221;BME280;63802;53.232;6.570;2023-02-11T06:01:53;103116.34;;;6.39;93.56
75221;BME280;63802;53.232;6.570;2023-02-11T06:04:19;103111.72;;;6.44;93.32
75221;BME280;63802;53.232;6.570;2023-02-11T06:06:44;103116.09;;;6.40;93.64
75221;BME280;63802;53.232;6.570;2023-02-11T06:09:10;103112.56;;;6.40;93.56
75221;BME280;63802;53.232;6.570;2023-02-11T06:11:36;103123.09;;;6.46;93.63
75221;BME280;63802;53.232;6.570;2023-02-11T06:14:01;103113.91;;;6.42;93.29
75221;BME280;63802;53.232;6.570;2023-02-11T06:16:27;103098.19;;;6.39;93.30
75221;BME280;63802;53.232;6.570;2023-02-11T06:18:52;103117.69;;;6.46;92.93
75221;BME280;63802;53.232;6.570;2023-02-11T06:21:18;103115.00;;;6.41;93.21
75221;BME280;63802;53.232;6.570;2023-02-11T06:23:43;103111.19;;;6.42;93.41
75221;BME280;63802;53.232;6.570;2023-02-11T06:26:15;103116.63;;;6.42;93.21
75221;BME280;63802;53.232;6.570;2023-02-11T06:28:41;103109.03;;;6.44;93.57
75221;BME280;63802;53.232;6.570;2023-02-11T06:31:07;103108.50;;;6.42;93.37
75221;BME280;63802;53.232;6.570;2023-02-11T06:33:34;103110.09;;;6.43;93.26
75221;BME280;63802;53.232;6.570;2023-02-11T06:36:00;103091.44;;;6.32;93.38
75221;BME280;63802;53.232;6.570;2023-02-11T06:38:25;103092.25;;;6.37;93.54
75221;BME280;63802;53.232;6.570;2023-02-11T06:40:51;103113.91;;;6.47;93.21
75221;BME280;63802;53.232;6.570;2023-02-11T06:43:16;103122.00;;;6.52;93.42
75221;BME280;63802;53.232;6.570;2023-02-11T06:45:42;103119.00;;;6.54;92.95
75221;BME280;63802;53.232;6.570;2023-02-11T06:48:08;103124.97;;;6.51;92.88
75221;BME280;63802;53.232;6.570;2023-02-11T06:50:33;103124.44;;;6.54;92.95
75221;BME280;63802;53.232;6.570;2023-02-11T06:52:59;103126.84;;;6.55;92.80
75221;BME280;63802;53.232;6.570;2023-02-11T06:55:25;103128.78;;;6.55;92.81
75221;BME280;63802;53.232;6.570;2023-02-11T06:57:50;103127.13;;;6.59;92.79
75221;BME280;63802;53.232;6.570;2023-02-11T07:00:16;103125.50;;;6.58;93.24
75221;BME280;63802;53.232;6.570;2023-02-11T07:02:41;103119.84;;;6.49;92.75
75221;BME280;63802;53.232;6.570;2023-02-11T07:05:07;103124.16;;;6.55;93.14
75221;BME280;63802;53.232;6.570;2023-02-11T07:07:33;103134.97;;;6.60;92.86
75221;BME280;63802;53.232;6.570;2023-02-11T07:09:59;103138.22;;;6.62;92.89
75221;BME280;63802;53.232;6.570;2023-02-11T07:12:24;103133.63;;;6.58;92.84
75221;BME280;63802;53.232;6.570;2023-02-11T07:14:49;103141.75;;;6.63;93.01
75221;BME280;63802;53.232;6.570;2023-02-11T07:17:15;103146.91;;;6.64;93.00
75221;BME280;63802;53.232;6.570;2023-02-11T07:19:40;103135.56;;;6.57;92.61
75221;BME280;63802;53.232;6.570;2023-02-11T07:22:06;103146.91;;;6.64;92.29
75221;BME280;63802;53.232;6.570;2023-02-11T07:24:31;103147.47;;;6.61;93.02
75221;BME280;63802;53.232;6.570;2023-02-11T07:26:57;103157.75;;;6.64;92.60
75221;BME280;63802;53.232;6.570;2023-02-11T07:29:22;103156.13;;;6.63;92.73
75221;BME280;63802;53.232;6.570;2023-02-11T07:31:47;103139.31;;;6.66;92.87
75221;BME280;63802;53.232;6.570;2023-02-11T07:34:13;103139.81;;;6.68;92.33
75221;BME280;63802;53.232;6.570;2023-02-11T07:36:38;103119.78;;;6.64;92.56
75221;BME280;63802;53.232;6.570;2023-02-11T07:39:04;103138.97;;;6.73;92.39
75221;BME280;63802;53.232;6.570;2023-02-11T07:41:29;103140.88;;;6.72;92.31
75221;BME280;63802;53.232;6.570;2023-02-11T07:43:57;103140.84;;;6.83;92.06
75221;BME280;63802;53.232;6.570;2023-02-11T07:46:25;103129.97;;;6.83;92.09
75221;BME280;63802;53.232;6.570;2023-02-11T07:48:51;103133.19;;;6.90;92.42
75221;BME280;63802;53.232;6.570;2023-02-11T07:51:24;103140.25;;;6.91;91.89
75221;BME280;63802;53.232;6.570;2023-02-11T07:53:50;103132.41;;;6.84;92.09
75221;BME280;63802;53.232;6.570;2023-02-11T07:56:17;103149.97;;;6.97;91.99
75221;BME280;63802;53.232;6.570;2023-02-11T07:58:44;103149.41;;;7.00;91.98
75221;BME280;63802;53.232;6.570;2023-02-11T08:01:12;103161.31;;;7.04;91.46
75221;BME280;63802;53.232;6.570;2023-02-11T08:03:39;103159.13;;;7.06;91.91
75221;BME280;63802;53.232;6.570;2023-02-11T08:06:10;103154.78;;;7.10;91.81
75221;BME280;63802;53.232;6.570;2023-02-11T08:08:36;103156.91;;;7.13;91.61
75221;BME280;63802;53.232;6.570;2023-02-11T08:11:10;103163.97;;;7.14;91.22
75221;BME280;63802;53.232;6.570;2023-02-11T08:13:36;103166.16;;;7.17;91.22
75221;BME280;63802;53.232;6.570;2023-02-11T08:16:03;103173.19;;;7.18;90.95
75221;BME280;63802;53.232;6.570;2023-02-11T08:18:30;103173.44;;;7.21;90.82
75221;BME280;63802;53.232;6.570;2023-02-11T08:20:56;103179.09;;;7.25;91.00
75221;BME280;63802;53.232;6.570;2023-02-11T08:23:21;103178.00;;;7.31;90.81
75221;BME280;63802;53.232;6.570;2023-02-11T08:25:47;103184.25;;;7.31;91.00
75221;BME280;63802;53.232;6.570;2023-02-11T08:28:12;103201.28;;;7.37;90.61
75221;BME280;63802;53.232;6.570;2023-02-11T08:30:38;103200.22;;;7.38;90.26
75221;BME280;63802;53.232;6.570;2023-02-11T08:33:03;103200.44;;;7.41;90.28
75221;BME280;63802;53.232;6.570;2023-02-11T08:35:29;103202.91;;;7.43;90.31
75221;BME280;63802;53.232;6.570;2023-02-11T08:37:54;103216.44;;;7.48;90.03
75221;BME280;63802;53.232;6.570;2023-02-11T08:40:20;103212.63;;;7.49;89.98
75221;BME280;63802;53.232;6.570;2023-02-11T08:42:45;103209.91;;;7.49;90.05
75221;BME280;63802;53.232;6.570;2023-02-11T08:45:10;103212.06;;;7.52;89.75
75221;BME280;63802;53.232;6.570;2023-02-11T08:47:37;103211.81;;;7.49;89.78
75221;BME280;63802;53.232;6.570;2023-02-11T08:50:03;103217.19;;;7.54;89.53
75221;BME280;63802;53.232;6.570;2023-02-11T08:52:28;103213.69;;;7.53;89.53
75221;BME280;63802;53.232;6.570;2023-02-11T08:54:54;103226.16;;;7.54;89.42
75221;BME280;63802;53.232;6.570;2023-02-11T08:57:19;103239.72;;;7.59;89.40
75221;BME280;63802;53.232;6.570;2023-02-11T08:59:45;103219.13;;;7.53;89.46
75221;BME280;63802;53.232;6.570;2023-02-11T09:02:11;103238.63;;;7.60;89.38
75221;BME280;63802;53.232;6.570;2023-02-11T09:04:37;103244.81;;;7.66;88.97
75221;BME280;63802;53.232;6.570;2023-02-11T09:07:02;103235.31;;;7.68;88.84
75221;BME280;63802;53.232;6.570;2023-02-11T09:09:28;103235.75;;;7.80;88.99
75221;BME280;63802;53.232;6.570;2023-02-11T09:11:54;103238.53;;;7.70;88.95
75221;BME280;63802;53.232;6.570;2023-02-11T09:14:22;103248.88;;;7.68;88.93
75221;BME280;63802;53.232;6.570;2023-02-11T09:16:49;103262.22;;;7.70;88.75
75221;BME280;63802;53.232;6.570;2023-02-11T09:19:16;103264.31;;;7.78;88.55
75221;BME280;63802;53.232;6.570;2023-02-11T09:21:41;103255.13;;;7.69;88.44
75221;BME280;63802;53.232;6.570;2023-02-11T09:24:07;103272.69;;;7.86;88.64
75221;BME280;63802;53.232;6.570;2023-02-11T09:26:33;103273.72;;;7.90;88.27
75221;BME280;63802;53.232;6.570;2023-02-11T09:29:00;103268.78;;;7.97;88.09
75221;BME280;63802;53.232;6.570;2023-02-11T09:31:27;103272.28;;;8.03;88.07
75221;BME280;63802;53.232;6.570;2023-02-11T09:33:55;103275.22;;;8.06;87.71
75221;BME280;63802;53.232;6.570;2023-02-11T09:36:24;103284.44;;;8.10;87.98
75221;BME280;63802;53.232;6.570;2023-02-11T09:38:51;103277.84;;;8.17;88.19
75221;BME280;63802;53.232;6.570;2023-02-11T09:43:52;103289.50;;;8.27;87.39
75221;BME280;63802;53.232;6.570;2023-02-11T09:46:19;103294.59;;;8.34;87.61
75221;BME280;63802;53.232;6.570;2023-02-11T09:48:48;103302.25;;;8.32;87.29
75221;BME280;63802;53.232;6.570;2023-02-11T09:51:37;103302.41;;;8.40;87.26
75221;BME280;63802;53.232;6.570;2023-02-11T09:54:33;103295.59;;;8.43;87.14
75221;BME280;63802;53.232;6.570;2023-02-11T09:57:03;103297.19;;;8.49;86.62
75221;BME280;63802;53.232;6.570;2023-02-11T09:59:30;103302.03;;;8.52;86.87
75221;BME280;63802;53.232;6.570;2023-02-11T10:01:59;103305.00;;;8.55;86.46
75221;BME280;63802;53.232;6.570;2023-02-11T10:04:45;103314.16;;;8.64;86.31
75221;BME280;63802;53.232;6.570;2023-02-11T10:13:16;103329.88;;;8.72;86.15
75221;BME280;63802;53.232;6.570;2023-02-11T10:15:53;103338.84;;;8.73;85.73
75221;BME280;63802;53.232;6.570;2023-02-11T10:19:02;103338.91;;;8.68;85.62
75221;BME280;63802;53.232;6.570;2023-02-11T10:24:23;103337.72;;;8.74;85.85
75221;BME280;63802;53.232;6.570;2023-02-11T10:26:51;103342.03;;;8.80;85.62
75221;BME280;63802;53.232;6.570;2023-02-11T10:29:39;103345.28;;;8.82;85.47
75221;BME280;63802;53.232;6.570;2023-02-11T10:35:20;103343.06;;;8.84;85.26
75221;BME280;63802;53.232;6.570;2023-02-11T10:37:47;103347.34;;;8.90;84.99
75221;BME280;63802;53.232;6.570;2023-02-11T10:40:18;103358.25;;;8.90;84.72
75221;BME280;63802;53.232;6.570;2023-02-11T10:42:47;103353.41;;;8.87;84.91
75221;BME280;63802;53.232;6.570;2023-02-11T10:45:22;103348.06;;;9.01;84.78
75221;BME280;63802;53.232;6.570;2023-02-11T10:47:49;103336.34;;;9.00;84.53
75221;BME280;63802;53.232;6.570;2023-02-11T10:50:24;103348.53;;;9.08;84.56
75221;BME280;63802;53.232;6.570;2023-02-11T10:52:50;103349.34;;;9.08;84.71
75221;BME280;63802;53.232;6.570;2023-02-11T10:55:20;103346.03;;;9.11;84.34
75221;BME280;63802;53.232;6.570;2023-02-11T10:57:59;103358.44;;;9.22;84.03
75221;BME280;63802;53.232;6.570;2023-02-11T11:00:26;103355.72;;;9.22;83.98
75221;BME280;63802;53.232;6.570;2023-02-11T11:02:56;103370.91;;;9.28;83.63
75221;BME280;63802;53.232;6.570;2023-02-11T11:05:37;103373.09;;;9.26;83.58
75221;BME280;63802;53.232;6.570;2023-02-11T11:08:09;103379.81;;;9.34;83.62
75221;BME280;63802;53.232;6.570;2023-02-11T11:10:36;103372.06;;;9.22;83.43
75221;BME280;63802;53.232;6.570;2023-02-11T11:13:27;103377.28;;;9.19;83.29
75221;BME280;63802;53.232;6.570;2023-02-11T11:18:36;103362.66;;;9.10;83.55
75221;BME280;63802;53.232;6.570;2023-02-11T11:21:10;103375.66;;;9.18;83.63
75221;BME280;63802;53.232;6.570;2023-02-11T11:23:38;103382.53;;;9.10;83.97
75221;BME280;63802;53.232;6.570;2023-02-11T11:26:10;103385.16;;;9.20;83.69
75221;BME280;63802;53.232;6.570;2023-02-11T11:28:42;103386.78;;;9.21;84.07
75221;BME280;63802;53.232;6.570;2023-02-11T11:31:19;103372.97;;;9.36;83.47
75221;BME280;63802;53.232;6.570;2023-02-11T11:33:46;103370.56;;;9.35;83.67
75221;BME280;63802;53.232;6.570;2023-02-11T11:36:15;103380.44;;;9.50;83.49
75221;BME280;63802;53.232;6.570;2023-02-11T11:38:45;103372.84;;;9.47;83.53
75221;BME280;63802;53.232;6.570;2023-02-11T11:43:38;103385.66;;;9.46;82.75
75221;BME280;63802;53.232;6.570;2023-02-11T11:46:03;103379.47;;;9.40;83.00
75221;BME280;63802;53.232;6.570;2023-02-11T11:48:37;103384.44;;;9.33;83.13
75221;BME280;63802;53.232;6.570;2023-02-11T11:51:05;103384.56;;;9.47;82.86
75221;BME280;63802;53.232;6.570;2023-02-11T11:53:40;103382.66;;;9.48;82.85
75221;BME280;63802;53.232;6.570;2023-02-11T11:56:23;103384.06;;;9.64;82.71
75221;BME280;63802;53.232;6.570;2023-02-11T11:58:49;103380.59;;;9.77;82.62
75221;BME280;63802;53.232;6.570;2023-02-11T12:19:02;103389.84;;;10.18;80.81
75221;BME280;63802;53.232;6.570;2023-02-11T12:21:43;103384.00;;;10.06;80.85
75221;BME280;63802;53.232;6.570;2023-02-11T12:24:44;103380.91;;;10.13;80.56
75221;BME280;63802;53.232;6.570;2023-02-11T12:43:41;103380.78;;;10.55;79.54
75221;BME280;63802;53.232;6.570;2023-02-11T12:46:29;103386.53;;;10.53;79.14
75221;BME280;63802;53.232;6.570;2023-02-11T12:49:21;103385.47;;;10.36;79.47
75221;BME280;63802;53.232;6.570;2023-02-11T12:52:07;103390.03;;;10.40;79.40
75221;BME280;63802;53.232;6.570;2023-02-11T12:57:24;103391.91;;;10.07;80.07
75221;BME280;63802;53.232;6.570;2023-02-11T13:00:16;103392.31;;;9.96;80.34
75221;BME280;63802;53.232;6.570;2023-02-11T13:08:08;103389.81;;;9.62;81.38
75221;BME280;63802;53.232;6.570;2023-02-11T13:10:37;103407.72;;;9.50;81.95
75221;BME280;63802;53.232;6.570;2023-02-11T13:13:13;103405.44;;;9.57;81.98
75221;BME280;63802;53.232;6.570;2023-02-11T13:15:46;103400.56;;;9.54;82.17
75221;BME280;63802;53.232;6.570;2023-02-11T13:18:45;103411.25;;;9.50;82.41
75221;BME280;63802;53.232;6.570;2023-02-11T13:26:24;103409.16;;;9.42;82.54
75221;BME280;63802;53.232;6.570;2023-02-11T13:31:41;103407.06;;;9.34;83.07
75221;BME280;63802;53.232;6.570;2023-02-11T13:34:26;103405.22;;;9.29;83.06
75221;BME280;63802;53.232;6.570;2023-02-11T13:40:05;103395.50;;;9.23;83.05
75221;BME280;63802;53.232;6.570;2023-02-11T13:42:49;103407.88;;;9.34;83.08
75221;BME280;63802;53.232;6.570;2023-02-11T13:45:40;103411.13;;;9.36;83.08
75221;BME280;63802;53.232;6.570;2023-02-11T13:48:28;103407.31;;;9.37;82.99
75221;BME280;63802;53.232;6.570;2023-02-11T13:51:02;103416.06;;;9.34;82.81
75221;BME280;63802;53.232;6.570;2023-02-11T13:53:28;103408.00;;;9.24;82.77
75221;BME280;63802;53.232;6.570;2023-02-11T13:56:11;103395.03;;;9.16;83.02
75221;BME280;63802;53.232;6.570;2023-02-11T13:58:47;103407.19;;;9.24;82.82
75221;BME280;63802;53.232;6.570;2023-02-11T14:04:23;103415.28;;;9.29;82.81
75221;BME280;63802;53.232;6.570;2023-02-11T14:07:37;103421.03;;;9.27;83.11
75221;BME280;63802;53.232;6.570;2023-02-11T14:10:54;103420.81;;;9.24;83.04
75221;BME280;63802;53.232;6.570;2023-02-11T14:13:29;103413.09;;;9.07;82.97
75221;BME280;63802;53.232;6.570;2023-02-11T14:16:16;103412.56;;;9.05;83.29
75221;BME280;63802;53.232;6.570;2023-02-11T14:21:30;103431.72;;;8.95;83.62
75221;BME280;63802;53.232;6.570;2023-02-11T14:29:33;103432.94;;;8.84;83.87
75221;BME280;63802;53.232;6.570;2023-02-11T14:43:16;103431.38;;;8.78;84.07
75221;BME280;63802;53.232;6.570;2023-02-11T14:45:49;103433.28;;;8.77;84.62
75221;BME280;63802;53.232;6.570;2023-02-11T14:48:17;103443.31;;;8.82;84.56
75221;BME280;63802;53.232;6.570;2023-02-11T14:50:53;103444.88;;;8.88;84.62
75221;BME280;63802;53.232;6.570;2023-02-11T14:53:24;103443.53;;;8.86;84.47
75221;BME280;63802;53.232;6.570;2023-02-11T14:55:54;103429.03;;;8.90;84.25
75221;BME280;63802;53.232;6.570;2023-02-11T14:58:20;103433.94;;;8.93;84.42
75221;BME280;63802;53.232;6.570;2023-02-11T15:00:48;103441.22;;;8.98;84.55
75221;BME280;63802;53.232;6.570;2023-02-11T15:03:31;103444.81;;;8.93;84.68
75221;BME280;63802;53.232;6.570;2023-02-11T15:08:24;103451.88;;;8.99;84.18
75221;BME280;63802;53.232;6.570;2023-02-11T15:10:49;103452.13;;;8.98;83.95
75221;BME280;63802;53.232;6.570;2023-02-11T15:13:19;103450.22;;;8.98;84.15
75221;BME280;63802;53.232;6.570;2023-02-11T15:15:48;103460.91;;;8.95;84.12
75221;BME280;63802;53.232;6.570;2023-02-11T15:18:20;103447.06;;;8.86;84.10
75221;BME280;63802;53.232;6.570;2023-02-11T15:20:47;103458.47;;;8.88;84.60
75221;BME280;63802;53.232;6.570;2023-02-11T15:23:24;103457.78;;;8.77;84.68